createdAt,value
2022-08-07T00:03:21.283Z,17.22
2022-08-07T00:08:48.911Z,17.27
2022-08-07T00:14:13.984Z,17.22
2022-08-07T00:20:01.461Z,17.20
2022-08-07T00:25:27.562Z,17.12
2022-08-07T00:31:37.511Z,17.08
2022-08-07T00:37:01.786Z,17.01
2022-08-07T00:42:29.021Z,16.92
2022-08-07T00:48:09.948Z,16.88
2022-08-07T00:53:38.954Z,16.83
2022-08-07T00:59:13.474Z,16.80
2022-08-07T01:04:43.428Z,16.77
2022-08-07T01:10:11.263Z,16.71
2022-08-07T01:16:00.854Z,16.67
2022-08-07T01:21:26.030Z,16.51
2022-08-07T01:26:53.779Z,16.58
2022-08-07T01:32:19.009Z,16.51
2022-08-07T01:37:47.618Z,16.43
2022-08-07T01:43:13.100Z,16.43
2022-08-07T01:48:41.032Z,16.32
2022-08-07T01:54:12.985Z,16.26
2022-08-07T01:59:56.072Z,16.21
2022-08-07T02:05:48.192Z,16.19
2022-08-07T02:12:02.584Z,15.97
2022-08-07T02:16:57.967Z,16.13
2022-08-07T02:22:25.817Z,16.12
2022-08-07T02:27:53.022Z,16.06
2022-08-07T02:33:18.125Z,16.00
2022-08-07T02:38:50.586Z,15.96
2022-08-07T02:44:23.648Z,15.95
2022-08-07T02:49:56.260Z,15.93
2022-08-07T02:55:28.243Z,15.84
2022-08-07T03:01:19.051Z,15.77
2022-08-07T03:06:55.216Z,15.73
2022-08-07T03:12:21.852Z,15.59
2022-08-07T03:17:53.762Z,15.70
2022-08-07T03:23:20.058Z,15.70
2022-08-07T03:28:58.492Z,15.59
2022-08-07T03:34:27.184Z,15.56
2022-08-07T03:40:13.340Z,15.54
2022-08-07T03:45:39.819Z,15.54
2022-08-07T03:51:12.508Z,15.47
2022-08-07T03:56:40.250Z,15.45
2022-08-07T04:02:24.447Z,15.24
2022-08-07T04:07:50.038Z,15.11
2022-08-07T04:13:19.370Z,15.15
2022-08-07T04:18:59.848Z,15.16
2022-08-07T04:24:30.513Z,15.14
2022-08-07T04:30:02.231Z,15.13
2022-08-07T04:35:40.378Z,15.09
2022-08-07T04:41:18.152Z,15.06
2022-08-07T04:47:04.008Z,15.08
2022-08-07T04:52:51.246Z,15.11
2022-08-07T04:58:47.520Z,15.13
2022-08-07T05:04:12.483Z,14.96
2022-08-07T05:09:52.002Z,15.25
2022-08-07T05:15:23.508Z,15.25
2022-08-07T05:20:55.473Z,15.32
2022-08-07T05:26:24.288Z,15.36
2022-08-07T05:31:57.083Z,15.39
2022-08-07T05:37:25.641Z,15.47
2022-08-07T05:42:56.264Z,15.49
2022-08-07T05:48:26.439Z,15.58
2022-08-07T05:54:12.053Z,15.65
2022-08-07T05:59:38.998Z,15.73
2022-08-07T06:05:28.316Z,15.81
2022-08-07T06:10:55.115Z,15.87
2022-08-07T06:16:21.419Z,16.01
2022-08-07T06:22:14.842Z,16.14
2022-08-07T06:27:59.700Z,16.29
2022-08-07T06:33:16.111Z,16.46
2022-08-07T06:38:51.204Z,16.60
2022-08-07T06:44:24.119Z,16.80
2022-08-07T06:49:51.987Z,17.50
2022-08-07T06:55:33.996Z,19.53
2022-08-07T07:01:11.119Z,20.89
2022-08-07T07:06:39.418Z,21.63
2022-08-07T07:12:31.428Z,22.62
2022-08-07T07:18:02.117Z,22.99
2022-08-07T07:24:09.092Z,23.39
2022-08-07T07:30:09.103Z,23.57
2022-08-07T07:35:23.649Z,23.83
2022-08-07T07:40:48.231Z,23.75
2022-08-07T07:46:38.022Z,23.53
2022-08-07T07:51:59.740Z,23.44
2022-08-07T07:57:50.410Z,23.56
2022-08-07T08:03:16.560Z,23.82
2022-08-07T08:08:42.399Z,23.55
2022-08-07T08:14:05.662Z,23.36
2022-08-07T08:20:18.006Z,23.44
2022-08-07T08:25:42.805Z,23.51
2022-08-07T08:31:22.750Z,23.57
2022-08-07T08:36:58.038Z,23.83
2022-08-07T08:42:27.314Z,23.94
2022-08-07T08:47:57.672Z,23.85
2022-08-07T08:53:29.291Z,23.74
2022-08-07T08:58:54.926Z,23.65
2022-08-07T09:04:26.050Z,23.77
2022-08-07T09:10:03.190Z,23.84
2022-08-07T09:16:20.036Z,24.12
2022-08-07T09:21:58.045Z,24.08
2022-08-07T09:27:28.779Z,24.11
2022-08-07T09:33:05.273Z,24.32
2022-08-07T09:38:53.445Z,24.54
2022-08-07T09:44:32.982Z,24.67
2022-08-07T09:50:18.510Z,24.90
2022-08-07T09:56:03.259Z,25.14
2022-08-07T10:01:51.301Z,25.21
2022-08-07T10:07:52.287Z,25.13
2022-08-07T10:14:00.304Z,24.89
2022-08-07T10:19:45.483Z,25.11
2022-08-07T10:25:22.871Z,25.11
2022-08-07T10:30:57.488Z,25.30
2022-08-07T10:36:36.155Z,25.46
2022-08-07T10:42:09.793Z,25.54
2022-08-07T10:47:53.755Z,25.63
2022-08-07T10:53:27.522Z,25.73
2022-08-07T10:58:59.913Z,25.56
2022-08-07T11:04:34.930Z,25.70
2022-08-07T11:10:10.932Z,25.95
2022-08-07T11:15:37.402Z,26.22
2022-08-07T11:21:05.897Z,26.16
2022-08-07T11:26:35.136Z,26.41
2022-08-07T11:32:07.414Z,26.00
2022-08-07T11:38:10.213Z,25.75
2022-08-07T11:44:11.509Z,25.93
2022-08-07T11:50:18.621Z,26.12
2022-08-07T11:56:25.936Z,26.00
2022-08-07T12:01:59.678Z,25.74
2022-08-07T12:07:27.271Z,25.63
2022-08-07T12:12:56.565Z,25.47
2022-08-07T12:18:29.823Z,25.36
2022-08-07T12:24:06.983Z,25.44
2022-08-07T12:29:42.550Z,25.20
2022-08-07T12:35:10.696Z,25.36
2022-08-07T12:40:47.539Z,25.39
2022-08-07T12:46:26.494Z,25.61
2022-08-07T12:52:12.208Z,25.76
2022-08-07T12:58:00.646Z,25.58
2022-08-07T13:04:02.432Z,25.71
2022-08-07T13:10:19.706Z,25.50
2022-08-07T13:15:23.527Z,25.55
2022-08-07T13:20:58.915Z,24.73
2022-08-07T13:26:31.095Z,24.82
2022-08-07T13:32:06.267Z,25.27
2022-08-07T13:37:59.073Z,25.53
2022-08-07T13:43:26.099Z,25.55
2022-08-07T13:49:01.036Z,25.96
2022-08-07T13:54:30.742Z,25.84
2022-08-07T14:00:02.354Z,25.91
2022-08-07T14:05:37.939Z,25.86
2022-08-07T14:11:15.481Z,25.92
2022-08-07T14:16:50.634Z,25.81
2022-08-07T14:22:19.219Z,25.92
2022-08-07T14:28:12.874Z,26.16
2022-08-07T14:33:45.043Z,26.38
2022-08-07T14:39:12.522Z,26.18
2022-08-07T14:45:00.145Z,25.76
2022-08-07T14:50:51.623Z,25.47
2022-08-07T14:56:29.565Z,25.26
2022-08-07T15:01:54.537Z,25.30
2022-08-07T15:07:25.200Z,25.27
2022-08-07T15:13:13.824Z,25.48
2022-08-07T15:18:40.205Z,25.41
2022-08-07T15:25:15.779Z,25.52
2022-08-07T15:36:01.673Z,25.17
2022-08-07T15:42:43.603Z,24.66
2022-08-07T15:47:16.794Z,24.72
2022-08-07T15:52:43.914Z,24.74
2022-08-07T15:58:21.062Z,24.37
2022-08-07T16:03:58.484Z,24.81
2022-08-07T16:09:42.021Z,24.59
2022-08-07T16:15:55.029Z,24.51
2022-08-07T16:21:56.790Z,24.71
2022-08-07T16:27:01.190Z,24.73
2022-08-07T16:32:34.596Z,24.60
2022-08-07T16:38:11.792Z,24.50
2022-08-07T16:44:46.325Z,24.39
2022-08-07T16:50:36.124Z,24.31
2022-08-07T16:56:09.784Z,24.09
2022-08-07T17:01:41.242Z,24.12
2022-08-07T17:07:15.638Z,24.35
2022-08-07T17:12:45.229Z,23.93
2022-08-07T17:24:25.064Z,24.19
2022-08-07T17:30:14.458Z,24.22
2022-08-07T17:35:57.052Z,23.96
2022-08-07T17:42:02.165Z,23.74
2022-08-07T17:47:42.260Z,23.48
2022-08-07T17:53:59.845Z,23.15
2022-08-07T17:59:11.238Z,23.24
2022-08-07T18:04:49.436Z,23.06
2022-08-07T18:10:32.377Z,23.08
2022-08-07T18:16:04.704Z,23.06
2022-08-07T18:21:51.529Z,23.10
2022-08-07T18:27:22.959Z,23.11
2022-08-07T18:33:19.151Z,23.11
2022-08-07T18:40:08.568Z,23.18
2022-08-07T18:45:44.275Z,23.11
2022-08-07T18:51:08.386Z,22.80
2022-08-07T18:56:38.469Z,22.59
2022-08-07T19:02:32.701Z,22.34
2022-08-07T19:08:02.237Z,22.10
2022-08-07T19:13:38.513Z,22.12
2022-08-07T19:19:05.341Z,22.01
2022-08-07T19:24:43.139Z,21.86
2022-08-07T19:31:00.297Z,21.80
2022-08-07T19:35:57.824Z,21.60
2022-08-07T19:41:44.416Z,21.24
2022-08-07T19:47:10.885Z,21.22
2022-08-07T19:52:42.582Z,21.14
2022-08-07T19:58:28.117Z,21.11
2022-08-07T20:03:53.232Z,21.02
2022-08-07T20:10:12.515Z,20.97
2022-08-07T20:15:33.155Z,20.93
2022-08-07T20:21:02.218Z,20.91
2022-08-07T20:26:32.629Z,20.93
2022-08-07T20:32:22.628Z,20.89
2022-08-07T20:37:57.734Z,20.85
2022-08-07T20:43:27.420Z,20.70
2022-08-07T20:49:00.742Z,20.66
2022-08-07T20:54:37.510Z,20.59
2022-08-07T21:00:09.379Z,20.49
2022-08-07T21:05:54.418Z,20.44
2022-08-07T21:11:40.337Z,20.39
2022-08-07T21:18:04.070Z,20.35
2022-08-07T21:23:19.536Z,20.32
2022-08-07T21:28:55.219Z,20.25
2022-08-07T21:34:32.349Z,20.20
2022-08-07T21:40:01.087Z,20.14
2022-08-07T21:46:07.983Z,19.87
2022-08-07T21:51:20.442Z,19.85
2022-08-07T21:57:04.215Z,19.84
2022-08-07T22:02:34.280Z,19.75
2022-08-07T22:07:59.931Z,19.58
2022-08-07T22:13:50.992Z,19.58
2022-08-07T22:19:20.093Z,19.52
2022-08-07T22:25:02.763Z,19.26
2022-08-07T22:30:29.942Z,19.34
2022-08-07T22:36:00.824Z,19.36
2022-08-07T22:41:29.175Z,19.33
2022-08-07T22:47:33.045Z,19.29
2022-08-07T22:54:06.493Z,19.18
2022-08-07T22:59:54.406Z,19.05
2022-08-07T23:06:07.536Z,19.09
2022-08-07T23:11:41.158Z,18.88
2022-08-07T23:17:32.378Z,19.02
2022-08-07T23:24:04.256Z,18.93
2022-08-07T23:30:36.086Z,18.85
2022-08-07T23:35:39.502Z,18.73
2022-08-07T23:41:33.484Z,18.63
2022-08-07T23:47:46.496Z,18.63
2022-08-07T23:53:19.291Z,18.60
2022-08-07T23:58:56.238Z,18.57
